Airfield :
LOGIN :

Register | Disclaimer

   EN    FR    IT 

 










Legend :    VFR   Marginal VFR   IFR   Intensive IFR   Very Intensive IFR
Visi :
Ceiling :
>= 8 km
>= 3000ft
5 to 8 km
1000 to 3000 ft
1500m to 5 km
500 to 1000 ft
800 to 1500m
200 to 500 ft
< 800m
< 200 ft
Symbols :   Thunderstorms  Fog  Heavy snow  Heavy precipitations  Wind > 20 kt
SIGMETs :     Misc.  Thunderstorms  Icing  Turbulence  Mountain Waves  Volcanic Ashes






- Airport Elevation : 794 ft


LKCV - Čáslav Air Base

CURRENT METAR :
  • 070730Z 31007KT CAVOK 16/11 Q1019 NOSIG RMK BLU BLU

EXPIRED METARs :
  • 070700Z 31004KT CAVOK 16/09 Q1019 NOSIG RMK BLU BLU
  • 070630Z VRB01KT CAVOK 16/09 Q1019 NOSIG RMK BLU BLU
  • 070600Z 00000KT CAVOK 15/09 Q1019 NOSIG RMK BLU BLU
  • 070530Z VRB01KT CAVOK 14/11 Q1019 NOSIG RMK BLU BLU
  • 070500Z 12002KT CAVOK 13/10 Q1019 NOSIG RMK BLU BLU
  • 070430Z 00000KT CAVOK 12/10 Q1020 NOSIG RMK BLU BLU

TAF TAF LKCV
Valid from the 07 at 06:00 until the 08 at 06:00 UTC


070500Z 0706/0806 VRB02KT CAVOK
TEMPO 0706/0713 30012KT RA BKN025
BECMG 0707/0710 28007KT BKN035
TEMPO 0713/0802 30012KT 7000 RA BKN024
PROB30
TEMPO 0720/0803 30015G25KT 4000 SHRA BKN007 BKN015CB



MET'MAP, your aeronautical weather chart ! - Copyright ORBIFLY December 2007 - Disclaimer

ORBIFLY MET'MAP TEAM :

Programming & Development : Alexandra Zaïnal
Original concept : Baudouin d'Aumeries
Technical & hardware support : Manuel Goepfert
Assistance : Marc-Olivier Méhu




SOURCES & CREDITS :

   NOAA